KAQW/AQW METAR and TAF weather

Enter ICAO airport designator
Station Type Date Time Source
KAQW METAR 2019/08/21 22:23 UTC NOAA

KAQW 212223Z AUTO 27005KT 2 1/2SM TSRA BR SCT030 BKN047 OVC085 20/19 A2986 RMK AO2 LTG DSNT S AND SW TSB04 P0052 T02000194


Station Type Date Time Source
KAQW Decoded METAR 2019/08/21 22:23 UTC NOAA

Station name not available
Aug 21, 2019 - 06:23 PM EDT / 2019.08.21 2223 UTC
Wind: from the W (270 degrees) at 6 MPH (5 KT):0
Visibility: 2 1/2 mile(s):0
Sky conditions: overcast
Weather: rain with thunder; mist; Lightning observed
Precipitation last hour: 0.52 inches
Temperature: 68.0 F (20.0 C)
Dew Point: 66.9 F (19.4 C)
Relative Humidity: 96%
Pressure (altimeter): 29.86 in. Hg (1011 hPa)
ob: KAQW 212223Z AUTO 27005KT 2 1/2SM TSRA BR SCT030 BKN047 OVC085 20/19 A2986 RMK AO2 LTG DSNT S AND SW TSB04 P0052 T02000194
cycle: 22

Station Type Date Time Source
KAQW TAF UTC NOAA

Error!

Example: see airport list